createdAt,value
2019-03-12T00:01:30.606Z,8.30
2019-03-12T00:03:59.677Z,8.80
2019-03-12T00:06:28.739Z,8.80
2019-03-12T00:08:57.847Z,8.43
2019-03-12T00:11:26.968Z,7.27
2019-03-12T00:13:55.951Z,7.07
2019-03-12T00:16:24.932Z,6.00
2019-03-12T00:18:53.964Z,6.30
2019-03-12T00:21:22.954Z,6.37
2019-03-12T00:23:52.007Z,6.17
2019-03-12T00:26:21.088Z,5.73
2019-03-12T00:28:50.237Z,6.47
2019-03-12T00:31:19.369Z,5.23
2019-03-12T00:33:48.427Z,5.60
2019-03-12T00:36:17.573Z,5.50
2019-03-12T00:38:46.696Z,5.80
2019-03-12T00:41:15.834Z,5.50
2019-03-12T00:43:44.963Z,5.73
2019-03-12T00:46:13.944Z,6.50
2019-03-12T00:48:43.026Z,5.83
2019-03-12T00:51:12.097Z,5.53
2019-03-12T00:53:41.064Z,6.20
2019-03-12T00:56:10.145Z,7.07
2019-03-12T00:58:39.191Z,6.63
2019-03-12T01:01:08.351Z,6.50
2019-03-12T01:03:37.354Z,6.27
2019-03-12T01:06:06.418Z,7.00
2019-03-12T01:08:35.446Z,6.97
2019-03-12T01:11:04.548Z,7.20
2019-03-12T01:13:33.671Z,6.90
2019-03-12T01:16:02.719Z,7.40
2019-03-12T01:18:31.955Z,6.90
2019-03-12T01:21:01.005Z,6.67
2019-03-12T01:23:30.039Z,7.70
2019-03-12T01:25:59.124Z,7.70
2019-03-12T01:28:28.150Z,7.27
2019-03-12T01:30:57.213Z,7.50
2019-03-12T01:33:26.365Z,7.97
2019-03-12T01:35:55.349Z,7.00
2019-03-12T01:38:24.334Z,7.97
2019-03-12T01:40:53.687Z,7.20
2019-03-12T01:43:22.833Z,8.17
2019-03-12T01:45:51.952Z,7.07
2019-03-12T01:48:20.935Z,7.30
2019-03-12T01:50:49.988Z,7.60
2019-03-12T01:53:18.987Z,8.53
2019-03-12T01:55:48.071Z,8.23
2019-03-12T01:58:17.133Z,8.40
2019-03-12T02:00:46.266Z,8.40
2019-03-12T02:03:15.352Z,7.73
2019-03-12T02:05:44.484Z,8.00
2019-03-12T02:08:13.555Z,8.47
2019-03-12T02:10:42.777Z,7.97
2019-03-12T02:13:11.851Z,7.93
2019-03-12T02:15:40.938Z,7.43
2019-03-12T02:18:10.069Z,9.10
2019-03-12T02:20:39.117Z,8.23
2019-03-12T02:23:08.250Z,8.40
2019-03-12T02:25:37.359Z,7.63
2019-03-12T02:28:06.398Z,8.00
2019-03-12T02:30:35.686Z,9.17
2019-03-12T02:33:04.741Z,8.13
2019-03-12T02:35:33.791Z,8.63
2019-03-12T02:38:02.838Z,8.50
2019-03-12T02:40:32.041Z,8.60
2019-03-12T02:43:01.221Z,9.23
2019-03-12T02:45:30.275Z,8.67
2019-03-12T02:47:59.413Z,8.70
2019-03-12T02:50:28.536Z,8.67
2019-03-12T02:52:57.587Z,9.20
2019-03-12T02:55:26.622Z,8.53
2019-03-12T02:57:55.623Z,8.93
2019-03-12T03:00:24.682Z,9.37
2019-03-12T03:02:53.718Z,8.53
2019-03-12T03:05:22.768Z,9.33
2019-03-12T03:07:56.386Z,9.10
2019-03-12T03:10:25.515Z,9.30
2019-03-12T03:12:54.828Z,9.47
2019-03-12T03:15:26.066Z,9.70
2019-03-12T03:17:55.185Z,10.30
2019-03-12T03:20:24.238Z,9.53
2019-03-12T03:22:53.451Z,9.97
2019-03-12T03:25:22.569Z,10.03
2019-03-12T03:27:51.685Z,9.77
2019-03-12T03:30:22.483Z,10.20
2019-03-12T03:32:51.645Z,10.43
2019-03-12T03:35:20.856Z,10.17
2019-03-12T03:37:49.964Z,11.20
2019-03-12T03:40:19.951Z,10.50
2019-03-12T03:42:48.993Z,11.13
2019-03-12T03:45:18.256Z,11.47
2019-03-12T03:47:47.407Z,11.07
2019-03-12T03:50:16.840Z,11.37
2019-03-12T03:52:45.983Z,11.67
2019-03-12T03:55:16.291Z,12.67
2019-03-12T03:57:45.329Z,13.00
2019-03-12T04:00:19.189Z,11.67
2019-03-12T04:02:48.393Z,11.67
2019-03-12T04:05:17.606Z,12.17
2019-03-12T04:07:46.785Z,11.97
2019-03-12T04:10:16.128Z,11.47
2019-03-12T04:12:45.258Z,12.10
2019-03-12T04:15:14.736Z,11.13
2019-03-12T04:17:43.876Z,11.97
2019-03-12T04:20:13.205Z,11.00
2019-03-12T04:22:42.267Z,10.37
2019-03-12T04:25:11.648Z,10.23
2019-03-12T04:27:40.636Z,9.53
2019-03-12T04:30:11.239Z,9.63
2019-03-12T04:32:40.283Z,9.20
2019-03-12T04:35:10.811Z,8.70
2019-03-12T04:37:39.871Z,8.23
2019-03-12T04:40:09.257Z,8.23
2019-03-12T04:42:38.297Z,9.10
2019-03-12T04:45:08.798Z,8.30
2019-03-12T04:47:37.946Z,8.23
2019-03-12T04:50:07.308Z,8.87
2019-03-12T04:52:36.455Z,8.13
2019-03-12T04:55:06.141Z,7.97
2019-03-12T04:57:35.284Z,7.53
2019-03-12T05:00:05.305Z,7.67
2019-03-12T05:02:34.365Z,7.10
2019-03-12T05:05:03.395Z,7.50
2019-03-12T05:07:32.444Z,7.03
2019-03-12T05:10:01.483Z,7.23
2019-03-12T05:12:30.906Z,6.60
2019-03-12T05:15:00.013Z,6.50
2019-03-12T05:17:31.430Z,6.00
2019-03-12T05:20:00.487Z,6.13
2019-03-12T05:22:29.696Z,6.00
2019-03-12T05:24:58.855Z,5.70
2019-03-12T05:27:27.902Z,5.57
2019-03-12T05:29:56.982Z,5.70
2019-03-12T05:32:26.047Z,4.93
2019-03-12T05:34:55.038Z,5.60
2019-03-12T05:37:24.076Z,5.40
2019-03-12T05:39:53.072Z,5.03
2019-03-12T05:42:22.075Z,5.50
2019-03-12T05:44:51.172Z,5.10
2019-03-12T05:47:20.247Z,5.13
2019-03-12T05:49:49.367Z,5.23
2019-03-12T05:52:18.585Z,5.47
2019-03-12T05:54:47.641Z,6.10
2019-03-12T05:57:16.712Z,5.20
2019-03-12T05:59:45.739Z,5.90
2019-03-12T06:02:14.984Z,5.40
2019-03-12T06:04:44.085Z,5.10
2019-03-12T06:07:13.300Z,4.63
2019-03-12T06:09:42.447Z,5.07
2019-03-12T06:12:11.540Z,5.00
2019-03-12T06:14:40.673Z,5.50
2019-03-12T06:17:10.029Z,4.87
2019-03-12T06:19:39.091Z,4.93
2019-03-12T06:22:11.405Z,5.43
2019-03-12T06:24:39.053Z,5.30
2019-03-12T06:27:08.122Z,4.80
2019-03-12T06:29:37.215Z,5.43
2019-03-12T06:32:43.992Z,4.97
2019-03-12T06:35:32.201Z,5.30
2019-03-12T06:38:20.425Z,5.13
2019-03-12T06:40:55.397Z,4.20
2019-03-12T06:43:55.817Z,3.87
2019-03-12T06:46:46.790Z,3.90
2019-03-12T06:49:34.555Z,4.23
2019-03-12T06:52:29.529Z,3.60
2019-03-12T06:55:07.735Z,3.73
2019-03-12T06:58:15.044Z,3.50
2019-03-12T07:01:01.908Z,3.20
2019-03-12T07:03:52.244Z,2.90
2019-03-12T07:06:33.207Z,3.13
2019-03-12T07:09:16.051Z,3.20
2019-03-12T07:11:54.811Z,3.00
2019-03-12T07:14:28.269Z,3.03
2019-03-12T07:17:16.327Z,3.00
2019-03-12T07:20:13.164Z,2.70
2019-03-12T07:23:06.172Z,2.20
2019-03-12T07:25:40.917Z,2.20
2019-03-12T07:28:29.042Z,2.53
2019-03-12T07:31:20.038Z,1.70
2019-03-12T07:34:06.887Z,1.80
2019-03-12T07:36:57.556Z,1.83
2019-03-12T07:39:44.077Z,2.10
2019-03-12T07:42:33.298Z,2.17
2019-03-12T07:45:20.283Z,1.93
2019-03-12T07:48:00.743Z,2.00
2019-03-12T07:50:44.178Z,2.00
2019-03-12T07:53:20.449Z,1.80
2019-03-12T07:56:01.711Z,2.00
2019-03-12T07:58:55.520Z,1.87
2019-03-12T08:01:34.990Z,1.73
2019-03-12T08:04:25.877Z,1.90
2019-03-12T08:07:14.995Z,1.70
2019-03-12T08:10:03.243Z,1.67
2019-03-12T08:12:39.327Z,2.53
2019-03-12T08:15:46.313Z,3.60
2019-03-12T08:18:31.205Z,1.77
2019-03-12T08:21:22.647Z,1.80
2019-03-12T08:24:05.430Z,1.80
2019-03-12T08:26:46.273Z,1.87
2019-03-12T08:29:40.473Z,1.40
2019-03-12T08:32:28.606Z,1.60
2019-03-12T08:35:29.031Z,1.50
2019-03-12T08:38:06.118Z,1.60
2019-03-12T08:40:56.969Z,2.03
2019-03-12T08:43:45.009Z,1.40
2019-03-12T08:46:40.886Z,1.70
2019-03-12T08:49:44.096Z,1.30
2019-03-12T08:52:32.247Z,1.60
2019-03-12T08:55:35.880Z,1.60
2019-03-12T08:58:16.117Z,1.60
2019-03-12T09:00:53.781Z,1.50
2019-03-12T09:03:48.858Z,1.80
2019-03-12T09:06:29.262Z,2.00
2019-03-12T09:09:10.250Z,1.90
2019-03-12T09:11:57.157Z,1.80
2019-03-12T09:14:48.171Z,2.20
2019-03-12T09:17:39.406Z,1.80
2019-03-12T09:20:40.617Z,1.87
2019-03-12T09:23:17.067Z,1.77
2019-03-12T09:25:56.262Z,1.73
2019-03-12T09:28:38.916Z,1.70
2019-03-12T09:31:20.417Z,1.70
2019-03-12T09:34:11.132Z,2.03
2019-03-12T09:37:05.266Z,1.90
2019-03-12T09:40:02.324Z,2.13
2019-03-12T09:42:49.698Z,2.07
2019-03-12T09:45:37.899Z,1.90
2019-03-12T09:48:24.575Z,1.83
2019-03-12T09:51:02.400Z,1.63
2019-03-12T09:53:53.547Z,1.90
2019-03-12T09:56:50.784Z,2.30
2019-03-12T09:59:44.829Z,2.33
2019-03-12T10:02:31.629Z,1.47
2019-03-12T10:05:23.955Z,1.90
2019-03-12T10:08:11.059Z,2.07
2019-03-12T10:10:46.597Z,1.93
2019-03-12T10:13:34.924Z,2.03
2019-03-12T10:16:23.570Z,2.00
2019-03-12T10:19:10.175Z,2.00
2019-03-12T10:21:46.773Z,1.90
2019-03-12T10:24:34.970Z,1.70
2019-03-12T10:27:29.267Z,2.07
2019-03-12T10:30:23.487Z,2.30
2019-03-12T10:33:05.671Z,2.73
2019-03-12T10:35:47.692Z,2.60
2019-03-12T10:39:08.097Z,2.70
2019-03-12T10:41:59.246Z,3.70
2019-03-12T10:44:53.438Z,3.17
2019-03-12T10:47:23.723Z,3.90
2019-03-12T10:49:52.835Z,3.10
2019-03-12T10:52:22.057Z,3.27
2019-03-12T10:54:51.118Z,3.00
2019-03-12T10:57:21.567Z,3.03
2019-03-12T10:59:51.106Z,2.90
2019-03-12T11:02:20.222Z,3.23
2019-03-12T11:04:50.224Z,2.73
2019-03-12T11:07:19.406Z,3.43
2019-03-12T11:09:48.629Z,3.27
2019-03-12T11:12:17.738Z,3.03
2019-03-12T11:14:47.014Z,2.97
2019-03-12T11:17:16.105Z,3.33
2019-03-12T11:19:45.621Z,3.07
2019-03-12T11:22:14.923Z,3.00
2019-03-12T11:24:44.270Z,3.40
2019-03-12T11:27:15.575Z,2.97
2019-03-12T11:29:44.767Z,3.30
2019-03-12T11:32:13.928Z,3.00
2019-03-12T11:34:43.097Z,2.90
2019-03-12T11:37:12.213Z,3.40
2019-03-12T11:39:41.572Z,3.30
2019-03-12T11:42:10.587Z,2.90
2019-03-12T11:44:40.107Z,3.10
2019-03-12T11:47:09.171Z,3.23
2019-03-12T11:49:38.461Z,3.30
2019-03-12T11:52:07.778Z,3.00
2019-03-12T11:54:37.152Z,3.10
2019-03-12T11:57:06.379Z,3.43
2019-03-12T11:59:35.680Z,3.30
2019-03-12T12:02:05.822Z,2.73
2019-03-12T12:04:34.869Z,3.20
2019-03-12T12:07:04.174Z,3.17
2019-03-12T12:09:33.563Z,3.47
2019-03-12T12:12:02.781Z,3.53
2019-03-12T12:14:31.945Z,3.40
2019-03-12T12:17:01.137Z,3.43
2019-03-12T12:19:30.267Z,3.27
2019-03-12T12:21:59.707Z,2.60
2019-03-12T12:24:28.808Z,3.10
2019-03-12T12:26:58.284Z,3.17
2019-03-12T12:29:27.418Z,2.93
2019-03-12T12:31:56.493Z,2.97
2019-03-12T12:34:25.832Z,2.77
2019-03-12T12:36:55.111Z,3.00
2019-03-12T12:39:24.329Z,3.23
2019-03-12T12:41:53.611Z,2.90
2019-03-12T12:44:22.947Z,2.80
2019-03-12T12:46:52.244Z,3.30
2019-03-12T12:49:22.228Z,2.63
2019-03-12T12:51:51.340Z,2.67
2019-03-12T12:54:20.752Z,2.70
2019-03-12T12:56:49.834Z,2.70
2019-03-12T12:59:18.973Z,2.90
2019-03-12T13:01:48.097Z,2.43
2019-03-12T13:04:17.347Z,3.20
2019-03-12T13:06:46.490Z,2.43
2019-03-12T13:09:15.740Z,2.90
2019-03-12T13:11:44.893Z,2.97
2019-03-12T13:14:14.187Z,2.77
2019-03-12T13:16:43.262Z,2.60
2019-03-12T13:19:12.436Z,2.77
2019-03-12T13:21:41.515Z,3.30
2019-03-12T13:24:13.455Z,2.23
2019-03-12T13:26:42.807Z,2.30
2019-03-12T13:29:11.796Z,2.70
2019-03-12T13:31:40.892Z,2.67
2019-03-12T13:34:10.028Z,2.30
2019-03-12T13:36:39.257Z,2.60
2019-03-12T13:39:08.543Z,2.57
2019-03-12T13:41:37.633Z,3.03
2019-03-12T13:44:06.954Z,2.57
2019-03-12T13:46:36.159Z,2.80
2019-03-12T13:49:05.353Z,2.73
2019-03-12T13:51:34.408Z,2.50
2019-03-12T13:54:03.553Z,2.63
2019-03-12T13:56:32.636Z,2.87
2019-03-12T13:59:01.699Z,2.57
2019-03-12T14:01:30.959Z,2.50
2019-03-12T14:04:10.114Z,2.73
2019-03-12T14:06:30.789Z,2.43
2019-03-12T14:08:59.927Z,2.50
2019-03-12T14:11:28.993Z,2.10
2019-03-12T14:13:58.074Z,2.50
2019-03-12T14:16:27.261Z,2.57
2019-03-12T14:18:56.325Z,2.80
2019-03-12T14:21:25.579Z,2.40
2019-03-12T14:24:03.058Z,2.80
2019-03-12T14:26:32.253Z,2.00
2019-03-12T14:29:01.306Z,2.40
2019-03-12T14:31:30.374Z,2.40
2019-03-12T14:33:59.442Z,2.30
2019-03-12T14:36:28.615Z,2.10
2019-03-12T14:38:57.763Z,2.90
2019-03-12T14:41:26.994Z,4.77
2019-03-12T14:43:56.095Z,2.70
2019-03-12T14:46:25.124Z,1.97
2019-03-12T14:49:02.545Z,2.17
2019-03-12T14:51:58.630Z,2.50
2019-03-12T14:54:27.743Z,2.50
2019-03-12T14:56:56.791Z,2.47
2019-03-12T14:59:25.891Z,2.50
2019-03-12T15:01:55.091Z,2.27
2019-03-12T15:04:24.254Z,2.83
2019-03-12T15:06:53.227Z,2.37
2019-03-12T15:09:22.336Z,2.43
2019-03-12T15:11:51.398Z,2.50
2019-03-12T15:14:20.445Z,2.60
2019-03-12T15:16:49.595Z,2.00
2019-03-12T15:19:18.726Z,2.40
2019-03-12T15:21:47.848Z,2.70
2019-03-12T15:24:16.999Z,2.27
2019-03-12T15:26:46.133Z,2.20
2019-03-12T15:29:15.230Z,2.50
2019-03-12T15:31:44.367Z,2.10
2019-03-12T15:34:13.506Z,2.67
2019-03-12T15:36:45.221Z,2.50
2019-03-12T15:39:13.342Z,2.70
2019-03-12T15:41:42.588Z,2.50
2019-03-12T15:44:11.837Z,2.70
2019-03-12T15:46:40.952Z,2.47
2019-03-12T15:49:09.912Z,2.83
2019-03-12T15:51:39.140Z,2.43
2019-03-12T15:54:08.342Z,2.70
2019-03-12T15:56:37.446Z,2.70
2019-03-12T15:59:06.578Z,2.57
2019-03-12T16:01:35.722Z,2.43
2019-03-12T16:04:04.963Z,2.70
2019-03-12T16:06:34.156Z,3.27
2019-03-12T16:09:04.247Z,3.00
2019-03-12T16:11:33.518Z,2.60
2019-03-12T16:14:02.748Z,2.63
2019-03-12T16:16:31.868Z,2.60
2019-03-12T16:19:00.958Z,2.40
2019-03-12T16:21:30.142Z,2.50
2019-03-12T16:23:59.223Z,2.40
2019-03-12T16:26:28.361Z,2.70
2019-03-12T16:28:57.571Z,2.40
2019-03-12T16:31:26.779Z,2.10
2019-03-12T16:33:55.847Z,2.50
2019-03-12T16:36:24.922Z,2.57
2019-03-12T16:38:53.932Z,2.53
2019-03-12T16:41:23.010Z,2.33
2019-03-12T16:43:52.290Z,2.47
2019-03-12T16:46:21.382Z,2.40
2019-03-12T16:48:50.880Z,2.10
2019-03-12T16:51:20.088Z,2.70
2019-03-12T16:53:49.325Z,2.50
2019-03-12T16:56:18.349Z,2.03
2019-03-12T16:58:47.538Z,1.77
2019-03-12T17:01:16.827Z,2.37
2019-03-12T17:03:45.912Z,2.67
2019-03-12T17:06:14.980Z,2.10
2019-03-12T17:08:44.162Z,1.93
2019-03-12T17:11:13.326Z,2.13
2019-03-12T17:13:42.395Z,2.43
2019-03-12T17:16:11.580Z,2.57
2019-03-12T17:18:40.714Z,2.20
2019-03-12T17:21:09.717Z,2.40
2019-03-12T17:23:38.883Z,2.23
2019-03-12T17:26:08.050Z,2.00
2019-03-12T17:28:37.201Z,2.33
2019-03-12T17:31:06.327Z,2.40
2019-03-12T17:33:35.380Z,2.20
2019-03-12T17:36:04.459Z,1.90
2019-03-12T17:38:45.915Z,2.10
2019-03-12T17:41:04.316Z,2.20
2019-03-12T17:43:33.462Z,2.30
2019-03-12T17:46:02.625Z,2.03
2019-03-12T17:48:31.748Z,2.03
2019-03-12T17:51:00.840Z,2.30
2019-03-12T17:53:30.036Z,2.03
2019-03-12T17:55:59.188Z,2.20
2019-03-12T17:58:28.238Z,2.20
2019-03-12T18:00:57.368Z,2.50
2019-03-12T18:03:26.336Z,2.13
2019-03-12T18:05:55.402Z,2.10
2019-03-12T18:08:24.485Z,2.10
2019-03-12T18:10:53.519Z,2.67
2019-03-12T18:13:22.592Z,2.30
2019-03-12T18:15:51.714Z,2.00
2019-03-12T18:18:20.667Z,2.00
2019-03-12T18:20:49.769Z,2.07
2019-03-12T18:23:18.934Z,2.00
2019-03-12T18:25:48.165Z,1.97
2019-03-12T18:28:17.229Z,2.30
2019-03-12T18:30:46.287Z,1.93
2019-03-12T18:33:15.339Z,2.03
2019-03-12T18:35:44.484Z,2.47
2019-03-12T18:38:13.603Z,2.50
2019-03-12T18:40:42.687Z,2.23
2019-03-12T18:43:14.716Z,2.37
2019-03-12T18:45:42.515Z,1.87
2019-03-12T18:48:11.696Z,2.30
2019-03-12T18:50:40.806Z,2.20
2019-03-12T18:53:09.912Z,2.47
2019-03-12T18:55:47.834Z,2.17
2019-03-12T18:58:16.902Z,2.00
2019-03-12T19:00:48.921Z,2.27
2019-03-12T19:03:18.327Z,2.10
2019-03-12T19:05:47.390Z,2.30
2019-03-12T19:08:16.481Z,2.33
2019-03-12T19:10:45.576Z,1.93
2019-03-12T19:13:14.755Z,2.40
2019-03-12T19:15:43.836Z,2.30
2019-03-12T19:18:12.926Z,1.80
2019-03-12T19:20:42.006Z,2.07
2019-03-12T19:23:11.146Z,2.20
2019-03-12T19:25:40.409Z,2.90
2019-03-12T19:28:09.555Z,1.90
2019-03-12T19:30:40.203Z,2.00
2019-03-12T19:33:11.349Z,1.90
2019-03-12T19:35:40.472Z,1.80
2019-03-12T19:38:10.000Z,2.10
2019-03-12T19:40:39.432Z,1.97
2019-03-12T19:43:08.468Z,1.70
2019-03-12T19:45:37.535Z,1.80
2019-03-12T19:48:06.874Z,1.90
2019-03-12T19:50:36.042Z,1.80
2019-03-12T19:53:05.226Z,1.90
2019-03-12T19:55:40.042Z,1.87
2019-03-12T19:58:09.109Z,1.77
2019-03-12T20:00:39.061Z,1.50
2019-03-12T20:03:12.060Z,1.80
2019-03-12T20:05:38.982Z,1.50
2019-03-12T20:08:08.118Z,1.80
2019-03-12T20:11:23.481Z,1.57
2019-03-12T20:14:44.919Z,1.33
2019-03-12T20:18:13.452Z,2.07
2019-03-12T20:21:17.350Z,1.93
2019-03-12T20:24:22.115Z,2.00
2019-03-12T20:27:40.452Z,1.50
2019-03-12T20:30:48.590Z,1.73
2019-03-12T20:33:57.453Z,1.93
2019-03-12T20:37:25.439Z,1.60
2019-03-12T20:40:28.669Z,1.60
2019-03-12T20:43:30.377Z,1.67
2019-03-12T20:46:46.891Z,1.70
2019-03-12T20:49:42.718Z,1.43
2019-03-12T20:52:47.955Z,1.40
2019-03-12T20:55:55.971Z,1.50
2019-03-12T20:59:00.716Z,1.57
2019-03-12T21:02:15.811Z,1.60
2019-03-12T21:05:35.197Z,1.70
2019-03-12T21:09:00.717Z,1.50
2019-03-12T21:12:06.561Z,1.40
2019-03-12T21:15:21.257Z,1.63
2019-03-12T21:18:42.823Z,1.53
2019-03-12T21:22:03.140Z,1.53
2019-03-12T21:24:57.553Z,1.47
2019-03-12T21:28:00.755Z,1.50
2019-03-12T21:30:29.847Z,1.60
2019-03-12T21:32:58.917Z,1.70
2019-03-12T21:35:27.986Z,1.60
2019-03-12T21:37:57.188Z,1.40
2019-03-12T21:40:26.336Z,1.40
2019-03-12T21:42:55.425Z,1.70
2019-03-12T21:45:24.584Z,1.37
2019-03-12T21:47:53.687Z,1.50
2019-03-12T21:50:24.221Z,1.40
2019-03-12T21:52:53.673Z,1.40
2019-03-12T21:55:22.834Z,1.20
2019-03-12T21:57:51.855Z,1.37
2019-03-12T22:00:20.934Z,1.40
2019-03-12T22:02:50.078Z,1.37
2019-03-12T22:05:19.240Z,1.20
2019-03-12T22:07:48.298Z,1.40
2019-03-12T22:10:18.337Z,1.30
2019-03-12T22:12:47.405Z,1.40
2019-03-12T22:15:16.444Z,1.17
2019-03-12T22:17:45.552Z,1.50
2019-03-12T22:20:14.601Z,1.20
2019-03-12T22:22:48.366Z,1.47
2019-03-12T22:25:17.429Z,1.40
2019-03-12T22:27:46.544Z,1.30
2019-03-12T22:30:18.389Z,1.47
2019-03-12T22:32:47.515Z,1.63
2019-03-12T22:35:16.560Z,1.40
2019-03-12T22:37:45.617Z,1.37
2019-03-12T22:40:14.719Z,1.30
2019-03-12T22:42:43.922Z,1.23
2019-03-12T22:45:12.975Z,1.33
2019-03-12T22:47:42.129Z,1.37
2019-03-12T22:50:11.208Z,1.30
2019-03-12T22:52:40.285Z,1.53
2019-03-12T22:55:09.959Z,1.27
2019-03-12T22:57:39.017Z,1.23
2019-03-12T23:00:09.502Z,1.40
2019-03-12T23:02:38.590Z,1.57
2019-03-12T23:05:07.703Z,1.40
2019-03-12T23:07:36.751Z,1.20
2019-03-12T23:10:06.721Z,1.73
2019-03-12T23:12:35.821Z,1.60
2019-03-12T23:15:05.583Z,1.30
2019-03-12T23:17:34.725Z,1.20
2019-03-12T23:20:04.080Z,1.60
2019-03-12T23:22:33.273Z,1.27
2019-03-12T23:25:02.324Z,1.40
2019-03-12T23:27:31.482Z,1.60
2019-03-12T23:30:00.552Z,1.60
2019-03-12T23:32:48.832Z,1.23
2019-03-12T23:35:17.894Z,1.30
2019-03-12T23:37:47.000Z,1.10
2019-03-12T23:40:17.493Z,1.20
2019-03-12T23:42:46.515Z,1.23
2019-03-12T23:45:17.204Z,1.17
2019-03-12T23:47:46.463Z,1.07
2019-03-12T23:50:16.093Z,1.10
2019-03-12T23:52:45.326Z,1.43
2019-03-12T23:55:15.642Z,1.27
2019-03-12T23:57:44.814Z,1.10
